Point Rock, New York
Current Conditions -  °F | °C
As of 5:53 AM on Tuesday 21 Oct 2014 (Local Time) from KRME Reporting Station
Overcast Overcast  
Wind Chill: 44°   Ceiling: 5000
Heat Index: 47°   Visibility: 10mi
Dew Point: 43°   Wind: 7mph
Humidity: 86%   Direction: 140°SE
Pressure: 29.87"   Gusts: NA
Location:  43.3949°N, 75.6118°W
Report Text: KRME 210953Z AUTO 14006KT 10SM OVC050 08/06 A2987 RMK AO2 RAB13E35 SLP114 P0000 T00830061
Loading
Personal Weather Stations






























Interactive Weather Map
Tropical Storm Tracking
New forecast layout! Learn more

10-Day Weather Forecast

Advertisements
Track Severe Weather on mobile